Time;durP1;ratioP1;P1;durP2;ratioP2;P2;SDS_P1;SDS_P2;PMS_P1;PMS_P2;Temp;Humidity;BMP_temperature;BMP_pressure;BME280_temperature;BME280_humidity;BME280_pressure;Samples;Min_cycle;Max_cycle;Signal;HPM_P1;HPM_P2
2022/11/11 00:00:27;;;;;;;9.10;1.40;;;;;;;-142.37;100.00;59669.53;5033703;28;20083;-66
2022/11/11 00:02:56;;;;;;;14.60;3.08;;;;;;;-142.37;100.00;59669.53;5033657;28;20033;-66
2022/11/11 00:05:23;;;;;;;9.73;1.58;;;;;;;-142.37;100.00;59669.53;5032930;28;20041;-66
2022/11/11 00:07:50;;;;;;;7.05;0.90;;;;;;;-142.37;100.00;59669.53;5033844;28;20060;-65
2022/11/11 00:10:16;;;;;;;7.90;1.05;;;;;;;-142.37;100.00;59669.53;5032376;28;20385;-65
2022/11/11 00:12:42;;;;;;;10.07;1.60;;;;;;;-142.37;100.00;59669.53;5033692;28;20029;-65
2022/11/11 00:15:08;;;;;;;8.13;1.58;;;;;;;-142.37;100.00;59669.53;5033666;28;20035;-65
2022/11/11 00:25:51;;;;;;;8.43;1.10;;;;;;;-142.37;100.00;59669.53;5033764;28;20048;-67
2022/11/11 00:28:16;;;;;;;14.57;1.50;;;;;;;-142.37;100.00;59669.53;5033348;28;20040;-66
2022/11/11 00:30:42;;;;;;;7.57;1.13;;;;;;;-142.37;100.00;59669.53;5031985;28;20029;-64
2022/11/11 00:33:08;;;;;;;8.35;1.02;;;;;;;-142.37;100.00;59669.53;5033046;28;20041;-66
2022/11/11 00:41:02;;;;;;;2.67;0.80;;;;;;;-142.37;100.00;59669.53;5032781;28;20040;-66
2022/11/11 00:43:28;;;;;;;4.70;1.17;;;;;;;-142.37;100.00;59669.53;5033114;28;20025;-66
2022/11/11 00:50:57;;;;;;;5.38;1.00;;;;;;;-142.37;100.00;59669.53;5031632;28;20029;-67
2022/11/11 00:51:24;;;;;;;7.88;1.58;;;;;;;-142.37;100.00;59669.53;5032953;28;20041;-67
2022/11/11 00:53:49;;;;;;;5.70;0.90;;;;;;;-142.37;100.00;59669.53;5032654;28;20033;-66
2022/11/11 00:56:15;;;;;;;4.38;0.85;;;;;;;-142.37;100.00;59669.53;5031527;28;20048;-68
2022/11/11 00:58:41;;;;;;;5.05;1.25;;;;;;;-142.37;100.00;59669.53;5032654;28;20379;-67
2022/11/11 01:01:06;;;;;;;5.72;1.15;;;;;;;-142.37;100.00;59669.53;5032381;28;20029;-64
2022/11/11 01:03:32;;;;;;;5.40;1.20;;;;;;;-142.37;100.00;59669.53;5032774;28;20029;-65
2022/11/11 01:06:02;;;;;;;2.97;0.70;;;;;;;-142.37;100.00;59669.53;5032652;28;20387;-66
2022/11/11 01:08:28;;;;;;;5.78;1.10;;;;;;;-142.37;100.00;59669.53;5031652;28;20053;-65
2022/11/11 01:10:54;;;;;;;5.22;0.90;;;;;;;-142.37;100.00;59669.53;5032697;28;20087;-67
2022/11/11 01:13:25;;;;;;;3.88;0.68;;;;;;;-142.37;100.00;59669.53;5032271;28;20428;-67
2022/11/11 01:15:52;;;;;;;2.88;0.80;;;;;;;-142.37;100.00;59669.53;5031276;28;20022;-67
2022/11/11 01:18:22;;;;;;;5.55;2.05;;;;;;;-142.37;100.00;59669.53;5032590;28;20466;-65
2022/11/11 01:21:03;;;;;;;3.88;0.85;;;;;;;-142.37;100.00;59669.53;5031157;28;20124;-68
2022/11/11 01:23:31;;;;;;;6.97;1.35;;;;;;;-142.37;100.00;59669.53;5032388;28;20520;-66
2022/11/11 01:26:02;;;;;;;4.25;1.02;;;;;;;-142.37;100.00;59669.53;5032334;28;20067;-66
2022/11/11 01:28:27;;;;;;;7.65;1.58;;;;;;;-142.37;100.00;59669.53;5032593;28;20117;-66
2022/11/11 01:30:53;;;;;;;5.28;0.90;;;;;;;-142.37;100.00;59669.53;5032338;28;20108;-66
2022/11/11 01:33:18;;;;;;;5.13;1.10;;;;;;;-142.37;100.00;59669.53;5030800;28;20038;-66
2022/11/11 01:35:45;;;;;;;2.78;0.70;;;;;;;-142.37;100.00;59669.53;5031210;28;20037;-69
2022/11/11 01:38:10;;;;;;;3.00;0.90;;;;;;;-142.37;100.00;59669.53;5030743;28;20030;-67
2022/11/11 01:40:41;;;;;;;4.80;0.80;;;;;;;-142.37;100.00;59669.53;5030784;28;20040;-66
2022/11/11 01:43:07;;;;;;;4.18;1.08;;;;;;;-142.37;100.00;59669.53;5032185;28;20544;-68
2022/11/11 01:45:54;;;;;;;4.05;0.80;;;;;;;-142.37;100.00;59669.53;5031079;28;20038;-66
2022/11/11 01:51:56;;;;;;;5.40;0.90;;;;;;;-142.37;100.00;59669.53;5032177;28;20109;-66
2022/11/11 01:54:30;;;;;;;3.00;0.60;;;;;;;-142.37;100.00;59669.53;5008887;28;20050;-65
2022/11/11 01:57:20;;;;;;;2.08;0.50;;;;;;;-142.37;100.00;59669.53;5030560;28;20516;-65
2022/11/11 01:59:49;;;;;;;3.38;0.77;;;;;;;-142.37;100.00;59669.53;5031718;28;20093;-65
2022/11/11 02:02:21;;;;;;;6.82;0.70;;;;;;;-142.37;100.00;59669.53;5030762;28;20470;-68
2022/11/11 02:07:34;;;;;;;6.95;1.15;;;;;;;-142.37;100.00;59669.53;5032046;28;20086;-66
2022/11/11 02:10:02;;;;;;;3.85;0.55;;;;;;;-142.37;100.00;59669.53;5032136;28;20424;-68
2022/11/11 02:15:11;;;;;;;5.30;0.85;;;;;;;-142.37;100.00;59669.53;5031568;28;20036;-68
2022/11/11 02:17:38;;;;;;;4.28;0.95;;;;;;;-142.37;100.00;59669.53;5031959;28;20528;-67
2022/11/11 02:20:05;;;;;;;3.10;0.88;;;;;;;-142.37;100.00;59669.53;5031797;28;20033;-66
2022/11/11 02:22:41;;;;;;;5.00;0.90;;;;;;;-142.37;100.00;59669.53;5031651;28;20441;-66
2022/11/11 02:25:10;;;;;;;5.70;1.00;;;;;;;-142.37;100.00;59669.53;5031650;28;20030;-67
2022/11/11 02:27:40;;;;;;;3.53;1.05;;;;;;;-142.37;100.00;59669.53;5031857;28;20045;-67
2022/11/11 02:30:14;;;;;;;5.45;1.08;;;;;;;-142.37;100.00;59669.53;5035572;28;20359;-67
2022/11/11 02:32:44;;;;;;;5.20;0.80;;;;;;;-142.37;100.00;59669.53;5033893;28;20029;-66
2022/11/11 02:35:18;;;;;;;2.50;1.17;;;;;;;-142.37;100.00;59669.53;5035223;28;20742;-67
2022/11/11 02:37:47;;;;;;;3.50;0.60;;;;;;;-142.37;100.00;59669.53;5034325;28;20025;-66
2022/11/11 02:40:17;;;;;;;6.63;0.70;;;;;;;-142.37;100.00;59669.53;5034145;28;20037;-65
2022/11/11 02:42:43;;;;;;;3.10;0.80;;;;;;;-142.37;100.00;59669.53;5034358;28;20440;-67
2022/11/11 02:45:09;;;;;;;3.58;1.15;;;;;;;-142.37;100.00;59669.53;5033754;28;20026;-65
2022/11/11 02:47:34;;;;;;;4.97;1.17;;;;;;;-142.37;100.00;59669.53;5035186;28;20073;-68
2022/11/11 02:50:00;;;;;;;2.20;0.60;;;;;;;-142.37;100.00;59669.53;5035236;28;20458;-69
2022/11/11 02:52:25;;;;;;;5.03;1.05;;;;;;;-142.37;100.00;59669.53;5035034;28;20025;-67
2022/11/11 02:54:51;;;;;;;5.25;1.33;;;;;;;-142.37;100.00;59669.53;5035086;28;20420;-67
2022/11/11 02:57:17;;;;;;;3.72;1.38;;;;;;;-142.37;100.00;59669.53;5033569;28;20040;-66
2022/11/11 02:59:42;;;;;;;3.80;0.90;;;;;;;-142.37;100.00;59669.53;5033566;28;20029;-65
2022/11/11 03:02:08;;;;;;;3.05;0.77;;;;;;;-142.37;100.00;59669.53;5034818;28;20482;-66
2022/11/11 03:04:34;;;;;;;5.75;0.60;;;;;;;-142.37;100.00;59669.53;5035148;28;20033;-69
2022/11/11 03:07:00;;;;;;;5.88;1.10;;;;;;;-142.37;100.00;59669.53;5034816;28;20493;-68
2022/11/11 03:09:26;;;;;;;9.15;1.77;;;;;;;-142.37;100.00;59669.53;5033616;28;20029;-66
2022/11/11 03:11:51;;;;;;;5.55;0.90;;;;;;;-142.37;100.00;59669.53;5034980;28;20465;-66
2022/11/11 03:14:17;;;;;;;3.78;1.10;;;;;;;-142.37;100.00;59669.53;5034526;28;20053;-67
2022/11/11 03:19:26;;;;;;;6.45;1.05;;;;;;;-142.37;100.00;59669.53;5034840;28;20056;-67
2022/11/11 03:21:54;;;;;;;2.47;0.70;;;;;;;-142.37;100.00;59669.53;5035018;28;20466;-67
2022/11/11 03:24:20;;;;;;;3.10;1.00;;;;;;;-142.37;100.00;59669.53;5034270;28;20056;-68
2022/11/11 03:26:46;;;;;;;4.88;0.85;;;;;;;-142.37;100.00;59669.53;5034535;28;20466;-67
2022/11/11 03:29:12;;;;;;;7.05;1.15;;;;;;;-142.37;100.00;59669.53;5034375;28;20121;-67
2022/11/11 03:31:38;;;;;;;6.55;1.05;;;;;;;-142.37;100.00;59669.53;5033264;28;20033;-66
2022/11/11 03:34:18;;;;;;;3.88;0.68;;;;;;;-142.37;100.00;59669.53;5034309;28;20470;-67
2022/11/11 03:39:29;;;;;;;5.90;1.25;;;;;;;-142.37;100.00;59669.53;5034445;28;20536;-66
2022/11/11 03:41:58;;;;;;;4.93;0.90;;;;;;;-142.37;100.00;59669.53;5034520;28;20038;-67
2022/11/11 03:44:24;;;;;;;4.82;0.95;;;;;;;-142.37;100.00;59669.53;5034324;28;20040;-66
2022/11/11 03:46:51;;;;;;;2.20;0.60;;;;;;;-142.37;100.00;59669.53;5034253;28;20029;-66
2022/11/11 03:49:17;;;;;;;2.65;0.98;;;;;;;-142.37;100.00;59669.53;5032581;28;20033;-65
2022/11/11 03:51:42;;;;;;;7.47;1.52;;;;;;;-142.37;100.00;59669.53;5034105;28;20030;-67
2022/11/11 03:54:08;;;;;;;4.32;0.70;;;;;;;-142.37;100.00;59669.53;5032582;28;20124;-66
2022/11/11 03:56:33;;;;;;;3.22;0.80;;;;;;;-142.37;100.00;59669.53;5033939;28;20048;-66
2022/11/11 03:58:59;;;;;;;3.72;1.02;;;;;;;-142.37;100.00;59669.53;5033650;28;20030;-66
2022/11/11 04:12:22;;;;;;;1.55;0.30;;;;;;;-142.37;100.00;59669.53;5033896;28;20552;-66
2022/11/11 04:17:32;;;;;;;1.73;0.57;;;;;;;-142.37;100.00;59669.53;5033494;28;20044;-67
2022/11/11 04:22:41;;;;;;;1.40;0.50;;;;;;;-142.37;100.00;59669.53;5033148;28;20075;-67
2022/11/11 04:29:27;;;;;;;2.72;0.50;;;;;;;-142.37;100.00;59669.53;5033632;28;20087;-66
2022/11/11 04:30:42;;;;;;;3.08;0.98;;;;;;;-142.37;100.00;59669.53;5033193;28;20034;-67
2022/11/11 04:33:08;;;;;;;3.10;0.65;;;;;;;-142.37;100.00;59669.53;5032877;28;20486;-67
2022/11/11 04:35:34;;;;;;;2.97;0.50;;;;;;;-142.37;100.00;59669.53;5033293;28;20489;-66
2022/11/11 04:41:02;;;;;;;3.85;0.93;;;;;;;-142.37;100.00;59669.53;5033032;28;20044;-65
2022/11/11 04:43:28;;;;;;;2.83;0.68;;;;;;;-142.37;100.00;59669.53;5031698;28;20056;-66
2022/11/11 04:46:00;;;;;;;2.50;0.63;;;;;;;-142.37;100.00;59669.53;5032992;28;20036;-66
2022/11/11 04:48:27;;;;;;;3.28;0.60;;;;;;;-142.37;100.00;59669.53;5031764;28;20332;-66
2022/11/11 04:50:53;;;;;;;3.05;0.85;;;;;;;-142.37;100.00;59669.53;5032659;28;20037;-67
2022/11/11 04:53:19;;;;;;;4.57;0.90;;;;;;;-142.37;100.00;59669.53;5032358;28;20029;-67
2022/11/11 04:58:31;;;;;;;4.78;0.63;;;;;;;-142.37;100.00;59669.53;5032586;28;20123;-67
2022/11/11 05:00:57;;;;;;;3.60;1.58;;;;;;;-142.37;100.00;59669.53;5032481;28;20030;-66
2022/11/11 05:03:22;;;;;;;3.15;0.57;;;;;;;-142.37;100.00;59669.53;5033067;28;20467;-67
2022/11/11 05:08:55;;;;;;;4.95;1.15;;;;;;;-142.37;100.00;59669.53;5032716;28;20136;-66
2022/11/11 05:11:26;;;;;;;4.00;0.73;;;;;;;-142.37;100.00;59669.53;5032877;28;20559;-67
2022/11/11 05:22:22;;;;;;;2.67;0.50;;;;;;;-142.37;100.00;59669.53;5032464;28;20092;-66
2022/11/11 05:27:32;;;;;;;7.10;0.55;;;;;;;-142.37;100.00;59669.53;5032155;28;20446;-68
2022/11/11 05:29:58;;;;;;;3.53;0.68;;;;;;;-142.37;100.00;59669.53;5030613;28;20041;-67
2022/11/11 05:32:24;;;;;;;2.85;0.50;;;;;;;-142.37;100.00;59669.53;5031046;28;20488;-69
2022/11/11 05:34:50;;;;;;;1.50;0.40;;;;;;;-142.37;100.00;59669.53;5032388;28;20041;-68
2022/11/11 05:37:16;;;;;;;4.47;0.68;;;;;;;-142.37;100.00;59669.53;5030522;28;20396;-67
2022/11/11 05:39:42;;;;;;;4.00;0.90;;;;;;;-142.37;100.00;59669.53;5031574;28;20504;-68
2022/11/11 05:42:08;;;;;;;1.42;0.50;;;;;;;-142.37;100.00;59669.53;5031853;28;20029;-69
2022/11/11 05:44:33;;;;;;;4.43;0.95;;;;;;;-142.37;100.00;59669.53;5031773;28;20057;-67
2022/11/11 05:46:59;;;;;;;2.25;0.40;;;;;;;-142.37;100.00;59669.53;5031054;28;20091;-67
2022/11/11 05:49:25;;;;;;;3.15;0.75;;;;;;;-142.37;100.00;59669.53;5031730;28;20030;-67
2022/11/11 05:51:58;;;;;;;4.22;0.80;;;;;;;-142.37;100.00;59669.53;5031582;28;20529;-68
2022/11/11 05:54:23;;;;;;;5.75;0.88;;;;;;;-142.37;100.00;59669.53;5031702;28;20036;-68
2022/11/11 05:56:49;;;;;;;2.50;0.95;;;;;;;-142.37;100.00;59669.53;5031377;28;20033;-68
2022/11/11 05:59:15;;;;;;;4.63;1.30;;;;;;;-142.37;100.00;59669.53;5031552;28;20482;-69
2022/11/11 06:01:41;;;;;;;5.45;2.22;;;;;;;-142.37;100.00;59669.53;5062954;28;20036;-68
2022/11/11 06:04:07;;;;;;;2.58;1.23;;;;;;;-142.37;100.00;59669.53;5033867;28;20033;-67
2022/11/11 06:06:34;;;;;;;2.90;0.95;;;;;;;-142.37;100.00;59669.53;5034289;28;20037;-67
2022/11/11 06:08:59;;;;;;;4.22;0.70;;;;;;;-142.37;100.00;59669.53;5035206;28;20029;-67
2022/11/11 06:11:26;;;;;;;2.17;0.50;;;;;;;-142.37;100.00;59669.53;5035305;28;20021;-68
2022/11/11 06:13:52;;;;;;;6.50;1.00;;;;;;;-142.37;100.00;59669.53;5033655;28;20033;-66
2022/11/11 06:16:18;;;;;;;1.83;0.35;;;;;;;-142.37;100.00;59669.53;5034026;28;20110;-68
2022/11/11 06:18:44;;;;;;;6.35;0.57;;;;;;;-142.37;100.00;59669.53;5035513;28;20510;-68
2022/11/11 06:21:09;;;;;;;4.57;0.70;;;;;;;-142.37;100.00;59669.53;5034832;28;20037;-67
2022/11/11 06:23:35;;;;;;;3.45;0.60;;;;;;;-142.37;100.00;59669.53;5035146;28;20438;-68
2022/11/11 06:26:13;;;;;;;5.03;0.82;;;;;;;-142.37;100.00;59669.53;5033358;28;20492;-68
2022/11/11 06:28:41;;;;;;;2.35;0.77;;;;;;;-142.37;100.00;59669.53;5035085;28;20030;-66
2022/11/11 06:31:08;;;;;;;4.40;0.73;;;;;;;-142.37;100.00;59669.53;5032671;28;20033;-70
2022/11/11 06:33:34;;;;;;;2.85;0.82;;;;;;;-142.37;100.00;59669.53;5033299;28;20033;-68
2022/11/11 06:36:01;;;;;;;4.78;0.65;;;;;;;-142.37;100.00;59669.53;5034743;28;20107;-66
2022/11/11 06:38:26;;;;;;;4.25;1.10;;;;;;;-142.37;100.00;59669.53;5033156;28;20037;-67
2022/11/11 06:40:52;;;;;;;2.53;0.93;;;;;;;-142.37;100.00;59669.53;5033296;28;20029;-70
2022/11/11 06:43:18;;;;;;;3.50;1.05;;;;;;;-142.37;100.00;59669.53;5033155;28;20037;-68
2022/11/11 06:45:44;;;;;;;2.63;0.80;;;;;;;-142.37;100.00;59669.53;5032996;28;20040;-69
2022/11/11 06:48:10;;;;;;;4.18;0.65;;;;;;;-142.37;100.00;59669.53;5032954;28;20040;-69
2022/11/11 06:50:36;;;;;;;5.20;1.30;;;;;;;-142.37;100.00;59669.53;5034140;28;20038;-68
2022/11/11 06:53:06;;;;;;;3.40;0.70;;;;;;;-142.37;100.00;59669.53;5033029;28;20106;-67
2022/11/11 06:55:33;;;;;;;3.67;0.88;;;;;;;-142.37;100.00;59669.53;5034587;28;20034;-69
2022/11/11 06:58:16;;;;;;;5.05;1.73;;;;;;;-142.37;100.00;59669.53;5034605;28;20493;-68
2022/11/11 07:00:43;;;;;;;5.75;1.08;;;;;;;-142.37;100.00;59669.53;5033760;28;20544;-69
2022/11/11 07:03:11;;;;;;;3.95;1.40;;;;;;;-142.37;100.00;59669.53;5033982;28;20044;-69
2022/11/11 07:05:37;;;;;;;2.35;0.55;;;;;;;-142.37;100.00;59669.53;5032282;28;20123;-69
2022/11/11 07:08:05;;;;;;;5.53;1.45;;;;;;;-142.37;100.00;59669.53;5034320;28;20482;-70
2022/11/11 07:10:32;;;;;;;10.98;1.65;;;;;;;-142.37;100.00;59669.53;5034059;28;20430;-67
2022/11/11 07:12:58;;;;;;;6.15;0.90;;;;;;;-142.37;100.00;59669.53;5033955;28;20059;-67
2022/11/11 07:15:24;;;;;;;4.57;1.40;;;;;;;-142.37;100.00;59669.53;5032103;28;20056;-70
2022/11/11 07:17:50;;;;;;;5.20;0.80;;;;;;;-142.37;100.00;59669.53;5033303;28;20030;-69
2022/11/11 07:20:16;;;;;;;6.68;1.23;;;;;;;-142.37;100.00;59669.53;5033398;28;20423;-68
2022/11/11 07:22:41;;;;;;;2.38;0.85;;;;;;;-142.37;100.00;59669.53;5033548;28;20033;-68
2022/11/11 07:25:07;;;;;;;3.85;0.82;;;;;;;-142.37;100.00;59669.53;5033909;28;20032;-69
2022/11/11 07:27:40;;;;;;;3.92;1.05;;;;;;;-142.37;100.00;59669.53;5032088;28;20037;-70
2022/11/11 07:30:07;;;;;;;4.45;1.38;;;;;;;-142.37;100.00;59669.53;5033030;28;20494;-69
2022/11/11 07:32:33;;;;;;;10.10;2.00;;;;;;;-142.37;100.00;59669.53;5033343;28;20029;-70
2022/11/11 07:34:58;;;;;;;6.30;1.50;;;;;;;-142.37;100.00;59669.53;5032185;28;20030;-66
2022/11/11 07:37:24;;;;;;;8.77;1.95;;;;;;;-142.37;100.00;59669.53;5032251;28;20538;-69
2022/11/11 07:39:50;;;;;;;3.22;1.40;;;;;;;-142.37;100.00;59669.53;5032545;28;20030;-69
2022/11/11 07:42:15;;;;;;;3.42;1.10;;;;;;;-142.37;100.00;59669.53;5032302;28;20057;-71
2022/11/11 07:44:41;;;;;;;7.07;1.63;;;;;;;-142.37;100.00;59669.53;5033391;28;20435;-69
2022/11/11 07:47:07;;;;;;;10.82;2.42;;;;;;;-142.37;100.00;59669.53;5032774;28;20442;-70
2022/11/11 07:49:33;;;;;;;6.57;1.35;;;;;;;-142.37;100.00;59669.53;5031860;28;20079;-69
2022/11/11 07:51:59;;;;;;;5.88;2.33;;;;;;;-142.37;100.00;59669.53;5031765;28;20040;-70
2022/11/11 07:54:24;;;;;;;7.45;1.75;;;;;;;-142.37;100.00;59669.53;5031678;28;20458;-68
2022/11/11 07:56:50;;;;;;;6.32;1.58;;;;;;;-142.37;100.00;59669.53;5031268;28;20036;-68
2022/11/11 07:59:17;;;;;;;9.75;2.22;;;;;;;-142.37;100.00;59669.53;5032415;28;20040;-68
2022/11/11 08:01:43;;;;;;;6.65;1.63;;;;;;;-142.37;100.00;59669.53;5031377;28;20379;-68
2022/11/11 08:04:08;;;;;;;7.25;1.92;;;;;;;-142.37;100.00;59669.53;5032915;28;20080;-68
2022/11/11 08:06:34;;;;;;;6.85;1.90;;;;;;;-142.37;100.00;59669.53;5031612;28;20170;-68
2022/11/11 08:09:00;;;;;;;7.15;1.83;;;;;;;-142.37;100.00;59669.53;5031313;28;20033;-67
2022/11/11 08:14:10;;;;;;;12.77;1.92;;;;;;;-142.37;100.00;59669.53;5033256;28;20091;-68
2022/11/11 08:16:36;;;;;;;8.68;2.17;;;;;;;-142.37;100.00;59669.53;5032056;28;20034;-67
2022/11/11 08:19:02;;;;;;;8.93;1.67;;;;;;;-142.37;100.00;59669.53;5033654;28;20494;-68
2022/11/11 08:21:27;;;;;;;13.65;2.38;;;;;;;-142.37;100.00;59669.53;5033231;28;20047;-65
2022/11/11 08:23:53;;;;;;;10.75;1.85;;;;;;;-142.37;100.00;59669.53;5031558;28;20146;-68
2022/11/11 08:26:22;;;;;;;7.55;2.00;;;;;;;-142.37;100.00;59669.53;5031897;28;20042;-67
2022/11/11 08:28:50;;;;;;;8.85;2.42;;;;;;;-142.37;100.00;59669.53;5031571;28;20030;-66
2022/11/11 08:31:15;;;;;;;12.23;2.28;;;;;;;-142.37;100.00;59669.53;5032668;28;20083;-68
2022/11/11 08:33:41;;;;;;;7.38;1.92;;;;;;;-142.37;100.00;59669.53;5031323;28;20033;-68
2022/11/11 08:36:09;;;;;;;9.05;2.78;;;;;;;-142.37;100.00;59669.53;5032803;28;20029;-68
2022/11/11 08:38:35;;;;;;;10.68;1.92;;;;;;;-142.37;100.00;59669.53;5033466;28;20083;-67
2022/11/11 08:41:03;;;;;;;13.23;3.03;;;;;;;-142.37;100.00;59669.53;5032223;28;20029;-68
2022/11/11 08:43:31;;;;;;;10.70;2.10;;;;;;;-142.37;100.00;59669.53;5031633;28;20029;-68
2022/11/11 08:46:02;;;;;;;10.35;3.45;;;;;;;-142.37;100.00;59669.53;5031278;28;20030;-67
2022/11/11 08:48:29;;;;;;;9.98;2.22;;;;;;;-142.37;100.00;59669.53;5032853;28;20076;-68
2022/11/11 08:50:55;;;;;;;12.90;2.92;;;;;;;-142.37;100.00;59669.53;5032663;28;20053;-69
2022/11/11 08:53:20;;;;;;;8.75;1.70;;;;;;;-142.37;100.00;59669.53;5030310;28;20068;-68
2022/11/11 08:55:46;;;;;;;11.35;2.58;;;;;;;-142.37;100.00;59669.53;5032262;28;20029;-68
2022/11/11 08:58:13;;;;;;;12.23;2.83;;;;;;;-142.37;100.00;59669.53;5032158;28;20033;-67
2022/11/11 09:00:39;;;;;;;13.63;3.10;;;;;;;-142.37;100.00;59669.53;5032453;28;20040;-65
2022/11/11 09:03:10;;;;;;;8.07;2.28;;;;;;;-142.37;100.00;59669.53;5031871;28;20025;-66
2022/11/11 09:05:40;;;;;;;10.80;1.98;;;;;;;-142.37;100.00;59669.53;5032532;28;20025;-67
2022/11/11 09:08:07;;;;;;;13.70;2.28;;;;;;;-142.37;100.00;59669.53;5032428;28;20041;-68
2022/11/11 09:10:36;;;;;;;9.88;1.75;;;;;;;-142.37;100.00;59669.53;5030617;28;20025;-68
2022/11/11 09:13:03;;;;;;;9.10;2.45;;;;;;;-142.37;100.00;59669.53;5030780;28;20441;-67
2022/11/11 09:15:29;;;;;;;12.07;2.42;;;;;;;-142.37;100.00;59669.53;5031878;28;20040;-67
2022/11/11 09:17:55;;;;;;;11.95;3.65;;;;;;;-142.37;100.00;59669.53;5031393;28;20037;-67
2022/11/11 09:20:21;;;;;;;12.50;3.45;;;;;;;-142.37;100.00;59669.53;5031987;28;20034;-67
2022/11/11 09:22:48;;;;;;;13.70;2.97;;;;;;;-142.37;100.00;59669.53;5031641;28;20037;-67
2022/11/11 09:25:15;;;;;;;12.65;3.33;;;;;;;-142.37;100.00;59669.53;5031470;28;20128;-66
2022/11/11 09:27:41;;;;;;;14.38;2.78;;;;;;;-142.37;100.00;59669.53;5031563;28;20030;-67
2022/11/11 09:30:08;;;;;;;6.80;1.90;;;;;;;-142.37;100.00;59669.53;5031382;28;20492;-66
2022/11/11 09:32:33;;;;;;;11.18;2.88;;;;;;;-142.37;100.00;59669.53;5031892;28;20429;-66
2022/11/11 09:34:59;;;;;;;9.02;2.20;;;;;;;-142.37;100.00;59669.53;5031311;28;20033;-67
2022/11/11 09:37:25;;;;;;;6.50;1.98;;;;;;;-142.37;100.00;59669.53;5031412;28;20034;-68
2022/11/11 09:39:51;;;;;;;11.95;2.83;;;;;;;-142.37;100.00;59669.53;5031401;28;20489;-66
2022/11/11 09:42:31;;;;;;;11.05;3.30;;;;;;;-142.37;100.00;59669.53;5031614;28;20120;-66
2022/11/11 09:45:06;;;;;;;11.15;2.67;;;;;;;-142.37;100.00;59669.53;5029971;28;20032;-68
2022/11/11 09:47:50;;;;;;;;;;;;;;;-142.37;100.00;59669.53;5030355;28;20029;-66
2022/11/11 09:50:20;;;;;;;10.25;2.60;;;;;;;-142.37;100.00;59669.53;5063129;28;19913;-66
2022/11/11 09:53:21;;;;;;;8.40;2.22;;;;;;;-142.37;100.00;59669.53;5031594;28;20104;-66
2022/11/11 09:55:54;;;;;;;11.20;2.15;;;;;;;-142.37;100.00;59669.53;5031149;28;20034;-67
2022/11/11 09:58:39;;;;;;;10.63;2.90;;;;;;;-142.37;100.00;59669.53;5030030;28;20026;-67
2022/11/11 10:01:12;;;;;;;8.35;2.20;;;;;;;-142.37;100.00;59669.53;5030710;28;20533;-67
2022/11/11 10:03:49;;;;;;;12.75;4.15;;;;;;;-142.37;100.00;59669.53;5029810;28;20057;-67
2022/11/11 10:06:23;;;;;;;10.77;2.97;;;;;;;-142.37;100.00;59669.53;5030962;28;20116;-67
2022/11/11 10:09:02;;;;;;;11.67;2.90;;;;;;;-142.37;100.00;59669.53;5031443;28;20037;-68
2022/11/11 10:11:59;;;;;;;10.15;2.45;;;;;;;-142.37;100.00;59669.53;5031336;28;20512;-68
2022/11/11 10:14:32;;;;;;;11.38;3.40;;;;;;;-142.37;100.00;59669.53;5030787;28;20039;-66
2022/11/11 10:17:30;;;;;;;10.35;2.20;;;;;;;-142.37;100.00;59669.53;5030867;28;20129;-68
2022/11/11 10:20:17;;;;;;;14.15;3.35;;;;;;;-142.37;100.00;59669.53;5031333;28;20124;-67
2022/11/11 10:22:45;;;;;;;13.07;2.95;;;;;;;-142.37;100.00;59669.53;5030807;28;20057;-67
2022/11/11 10:25:15;;;;;;;12.65;2.65;;;;;;;-142.37;100.00;59669.53;5030606;28;20073;-67
2022/11/11 10:27:46;;;;;;;8.18;2.40;;;;;;;-142.37;100.00;59669.53;5029520;28;20493;-69
2022/11/11 10:30:21;;;;;;;12.35;3.35;;;;;;;-142.37;100.00;59669.53;5031080;28;20510;-68
2022/11/11 10:32:55;;;;;;;11.02;2.15;;;;;;;-142.37;100.00;59669.53;5031135;28;20037;-67
2022/11/11 10:35:29;;;;;;;16.17;2.95;;;;;;;-142.37;100.00;59669.53;5030727;28;20057;-66
2022/11/11 10:38:10;;;;;;;13.23;2.63;;;;;;;-142.37;100.00;59669.53;5030921;28;20331;-66
2022/11/11 10:40:41;;;;;;;12.23;2.83;;;;;;;-142.37;100.00;59669.53;5030492;28;20029;-66
2022/11/11 10:43:21;;;;;;;8.82;2.40;;;;;;;-142.37;100.00;59669.53;5030707;28;20025;-67
2022/11/11 10:45:53;;;;;;;14.35;2.80;;;;;;;-142.37;100.00;59669.53;5030925;28;20032;-68
2022/11/11 10:48:31;;;;;;;13.27;2.92;;;;;;;-142.37;100.00;59669.53;5028995;28;20052;-67
2022/11/11 10:51:01;;;;;;;7.78;2.10;;;;;;;-142.37;100.00;59669.53;5034565;28;20111;-67
2022/11/11 10:53:52;;;;;;;9.43;2.40;;;;;;;-142.37;100.00;59669.53;5034453;28;20415;-67
2022/11/11 10:56:37;;;;;;;10.15;3.03;;;;;;;-142.37;100.00;59669.53;5032569;28;20033;-66
2022/11/11 10:59:08;;;;;;;13.20;2.83;;;;;;;-142.37;100.00;59669.53;5032136;28;20105;-66
2022/11/11 11:01:42;;;;;;;10.50;2.92;;;;;;;-142.37;100.00;59669.53;5032896;28;20037;-66
2022/11/11 11:04:30;;;;;;;15.90;3.97;;;;;;;-142.37;100.00;59669.53;5034302;28;20029;-65
2022/11/11 11:06:59;;;;;;;9.02;2.55;;;;;;;-142.37;100.00;59669.53;5033826;28;20032;-67
2022/11/11 11:09:40;;;;;;;9.60;2.88;;;;;;;-142.37;100.00;59669.53;5032307;28;20036;-66
2022/11/11 11:12:18;;;;;;;16.15;2.42;;;;;;;-142.37;100.00;59669.53;5032533;28;20040;-67
2022/11/11 11:14:48;;;;;;;13.35;2.70;;;;;;;-142.37;100.00;59669.53;5032156;28;20034;-66
2022/11/11 11:17:29;;;;;;;10.20;2.22;;;;;;;-142.37;100.00;59669.53;5032047;28;20041;-64
2022/11/11 11:20:11;;;;;;;11.27;3.05;;;;;;;-142.37;100.00;59669.53;5033835;28;20112;-66
2022/11/11 11:22:49;;;;;;;11.75;3.55;;;;;;;-142.37;100.00;59669.53;5033609;28;20051;-66
2022/11/11 11:25:15;;;;;;;12.25;2.47;;;;;;;-142.37;100.00;59669.53;5033468;28;20648;-67
2022/11/11 11:27:41;;;;;;;13.20;2.33;;;;;;;-142.37;100.00;59669.53;5033804;28;20060;-67
2022/11/11 11:30:22;;;;;;;8.60;1.95;;;;;;;-142.37;100.00;59669.53;5032381;28;20088;-66
2022/11/11 11:33:03;;;;;;;7.53;1.20;;;;;;;-142.37;100.00;59669.53;5032004;28;20064;-67
2022/11/11 11:35:34;;;;;;;8.23;2.05;;;;;;;-142.37;100.00;59669.53;5033846;28;20070;-68
2022/11/11 11:38:00;;;;;;;8.57;1.30;;;;;;;-142.37;100.00;59669.53;5032172;28;20394;-66
2022/11/11 11:40:27;;;;;;;12.85;2.30;;;;;;;-142.37;100.00;59669.53;5032908;28;20092;-66
2022/11/11 11:42:53;;;;;;;10.50;2.17;;;;;;;-142.37;100.00;59669.53;5032039;28;20112;-66
2022/11/11 11:45:30;;;;;;;13.63;1.98;;;;;;;-142.37;100.00;59669.53;5033227;28;20112;-67
2022/11/11 11:48:28;;;;;;;5.03;1.38;;;;;;;-142.37;100.00;59669.53;5031813;28;20025;-67
2022/11/11 11:51:31;;;;;;;11.48;2.38;;;;;;;-142.37;100.00;59669.53;5033150;28;20350;-66
2022/11/11 11:54:18;;;;;;;7.57;1.67;;;;;;;-142.37;100.00;59669.53;5033019;28;20033;-66
2022/11/11 11:56:49;;;;;;;9.85;2.65;;;;;;;-142.37;100.00;59669.53;5031797;28;20037;-67
2022/11/11 11:59:25;;;;;;;9.07;2.88;;;;;;;-142.37;100.00;59669.53;5032475;28;20056;-66
2022/11/11 12:01:58;;;;;;;11.07;1.80;;;;;;;-142.37;100.00;59669.53;5031793;28;20025;-67
2022/11/11 12:04:39;;;;;;;5.55;0.93;;;;;;;-142.37;100.00;59669.53;5032451;28;20037;-66
2022/11/11 12:07:12;;;;;;;8.05;2.00;;;;;;;-142.37;100.00;59669.53;5031108;28;20037;-67
2022/11/11 12:10:21;;;;;;;6.65;1.48;;;;;;;-142.37;100.00;59669.53;5033293;28;20389;-66
2022/11/11 12:13:05;;;;;;;5.65;1.20;;;;;;;-142.37;100.00;59669.53;5013615;28;20120;-66
2022/11/11 12:15:40;;;;;;;6.40;1.13;;;;;;;-142.37;100.00;59669.53;5032872;28;20057;-65
2022/11/11 12:18:20;;;;;;;7.50;1.50;;;;;;;-142.37;100.00;59669.53;5032642;28;20108;-65
2022/11/11 12:21:05;;;;;;;8.55;1.80;;;;;;;-142.37;100.00;59669.53;5031200;28;20037;-67
2022/11/11 12:23:49;;;;;;;;;;;;;;;-142.37;100.00;59669.53;5033167;28;20049;-65
2022/11/11 12:26:36;;;;;;;4.53;1.52;;;;;;;-142.37;100.00;59669.53;5064792;28;19919;-67
2022/11/11 12:29:20;;;;;;;6.82;1.80;;;;;;;-142.37;100.00;59669.53;5032617;28;20038;-66
2022/11/11 12:32:07;;;;;;;6.32;1.17;;;;;;;-142.37;100.00;59669.53;5031491;28;20072;-66